• pl
  • eng

Awiacja
WIADOMOŚCI
ostatnia aktualizacja: 13.03.2020 07:57
Od dnia 13.03.2020 do odwołania zawieszone zostaje opracowywanie prognozy Gafor.
TAF FT 07:30 10.04.2020
  • WIND
  • SIGNIFICANT EURO
  • SIGNIFICANT
  • SIGMET
  • AIRMET
  • TAF FC
  • TAF FT
  • METAR GG30
  • METAR GG00


TAF EPBY 100530Z 1006/1106 29007KT CAVOK
BECMG 1021/1024 02005KT=

TAF EPGD 100530Z 1006/1106 27004KT CAVOK
PROB30 1100/1104 0800 FG=

TAF EPKK 100530Z 1006/1106 31005KT 9999 SCT050
PROB30 TEMPO 1010/1015 SCT045TCU
TEMPO 1022/1105 3000 BR=

TAF EPKT 100530Z 1006/1106 32005KT 9999 FEW045
TEMPO 1021/1105 3000 BR=

TAF EPLL 100530Z 1006/1106 28005KT CAVOK=

TAF EPMO 100530Z 1006/1106 28006KT CAVOK=

TAF EPPO 100530Z 1006/1106 28005KT CAVOK=

TAF EPRZ 100530Z 1006/1106 34010KT 9999 SCT048
PROB40 TEMPO 1010/1015 BKN045TCU
BECMG 1016/1019 VRB02KT=

TAF EPSC 100530Z 1006/1106 VRB04KT CAVOK
PROB30 1100/1104 0800 FG=

TAF EPWA 100530Z 1006/1106 29006KT CAVOK=

TAF EPWR 100530Z 1006/1106 33006KT CAVOK=
Awiacja.imgw.pl jest pogodowym serwisem informacyjnym
Instytutu Meteorologii i Gospodarki Wodnej Państwowego Instytutu Badawczego.
Copyright IMGW PIB 2009-2019© Wszelkie prawa zastrzeżone.